Time;durP1;ratioP1;P1;durP2;ratioP2;P2;SDS_P1;SDS_P2;PMS_P1;PMS_P2;Temp;Humidity;BMP_temperature;BMP_pressure;BME280_temperature;BME280_humidity;BME280_pressure;Samples;Min_cycle;Max_cycle;Signal;HPM_P1;HPM_P2
2022/03/15 00:01:20;;;;;;;5.57;2.60;;;4.00;98.50;;;;;;5031021;28;20472;-62
2022/03/15 00:03:46;;;;;;;7.07;4.00;;;4.00;98.60;;;;;;5034046;28;20441;-61
2022/03/15 00:06:12;;;;;;;7.90;2.90;;;4.00;98.70;;;;;;5033048;28;20437;-61
2022/03/15 00:08:38;;;;;;;7.33;3.33;;;3.90;99.00;;;;;;5033807;28;20513;-61
2022/03/15 00:11:05;;;;;;;14.90;3.30;;;4.00;99.20;;;;;;5038099;28;20312;-62
2022/03/15 00:13:33;;;;;;;7.53;3.23;;;4.00;98.90;;;;;;5033532;28;20564;-62
2022/03/15 00:16:01;;;;;;;9.77;3.30;;;4.00;98.90;;;;;;5031413;28;20513;-62
2022/03/15 00:18:30;;;;;;;11.13;3.07;;;3.90;99.00;;;;;;5035598;28;20452;-63
2022/03/15 00:20:56;;;;;;;5.60;2.90;;;3.90;99.20;;;;;;5030963;28;21121;-62
2022/03/15 00:23:22;;;;;;;6.00;2.53;;;3.90;99.40;;;;;;5034189;28;20433;-63
2022/03/15 00:25:51;;;;;;;5.77;3.27;;;3.90;99.20;;;;;;5029935;28;20860;-62
2022/03/15 00:28:17;;;;;;;5.90;2.90;;;3.80;99.60;;;;;;5033382;28;20206;-60
2022/03/15 00:30:42;;;;;;;15.43;3.20;;;3.80;99.80;;;;;;5029062;28;20458;-60
2022/03/15 00:33:08;;;;;;;7.97;3.53;;;3.80;99.90;;;;;;5032999;28;20198;-61
2022/03/15 00:35:35;;;;;;;4.87;2.60;;;3.80;99.90;;;;;;5028441;28;20269;-61
2022/03/15 00:38:01;;;;;;;7.80;3.30;;;3.80;99.80;;;;;;5033927;28;20199;-62
2022/03/15 00:40:26;;;;;;;4.90;2.30;;;3.80;99.90;;;;;;5030169;28;20480;-61
2022/03/15 00:42:53;;;;;;;4.50;2.50;;;3.80;99.90;;;;;;5030699;28;20433;-62
2022/03/15 00:45:23;;;;;;;6.50;3.27;;;3.90;99.90;;;;;;5029679;28;20211;-62
2022/03/15 00:47:52;;;;;;;13.20;2.73;;;3.90;99.90;;;;;;5012654;28;20437;-61
2022/03/15 00:50:19;;;;;;;3.30;1.47;;;3.90;99.90;;;;;;5028669;28;20999;-61
2022/03/15 00:52:45;;;;;;;7.13;2.57;;;3.90;99.90;;;;;;5028031;28;20433;-62
2022/03/15 00:55:10;;;;;;;3.63;2.27;;;4.00;99.90;;;;;;5027736;28;20421;-62
2022/03/15 00:57:36;;;;;;;11.93;2.00;;;4.00;99.90;;;;;;5026085;28;20243;-63
2022/03/15 01:00:07;;;;;;;9.50;1.97;;;3.90;99.90;;;;;;5031767;28;20903;-61
2022/03/15 01:02:33;;;;;;;5.57;2.50;;;3.90;99.90;;;;;;5036999;28;21003;-59
2022/03/15 01:04:59;;;;;;;9.13;2.50;;;3.90;99.90;;;;;;5033808;28;20493;-61
2022/03/15 01:07:24;;;;;;;5.00;2.17;;;3.80;99.90;;;;;;5032286;28;20220;-63
2022/03/15 01:09:50;;;;;;;6.37;2.70;;;3.80;99.90;;;;;;5026636;28;20301;-61
2022/03/15 01:12:16;;;;;;;5.73;2.57;;;3.80;99.90;;;;;;5010447;28;20202;-62
2022/03/15 01:14:41;;;;;;;16.33;2.70;;;3.80;99.90;;;;;;5031492;28;20229;-62
2022/03/15 01:17:07;;;;;;;10.10;2.37;;;3.80;99.90;;;;;;5030257;28;20198;-62
2022/03/15 01:19:33;;;;;;;5.17;2.43;;;3.80;99.90;;;;;;5032799;28;20261;-62
2022/03/15 01:21:59;;;;;;;3.57;1.93;;;3.90;99.90;;;;;;5032765;28;20442;-61
2022/03/15 01:24:25;;;;;;;7.67;3.60;;;3.80;99.90;;;;;;5031430;28;20285;-62
2022/03/15 01:26:51;;;;;;;4.57;2.17;;;3.80;99.90;;;;;;5030408;28;20281;-60
2022/03/15 01:29:18;;;;;;;3.73;1.67;;;3.80;99.90;;;;;;5029323;28;20280;-61
2022/03/15 01:31:44;;;;;;;3.57;1.80;;;3.80;99.90;;;;;;5030413;28;21251;-63
2022/03/15 01:34:10;;;;;;;5.17;2.60;;;3.80;99.90;;;;;;5032535;28;20440;-62
2022/03/15 01:36:35;;;;;;;5.77;2.20;;;3.80;99.90;;;;;;5033357;28;20196;-62
2022/03/15 01:39:04;;;;;;;6.33;2.33;;;3.80;99.90;;;;;;5033874;28;20292;-61
2022/03/15 01:41:29;;;;;;;4.03;2.23;;;3.80;99.90;;;;;;5032095;28;20225;-61
2022/03/15 01:43:55;;;;;;;4.33;2.40;;;3.80;99.90;;;;;;5029640;28;20448;-62
2022/03/15 01:46:21;;;;;;;6.63;2.97;;;3.80;99.90;;;;;;5031866;28;20241;-61
2022/03/15 01:48:47;;;;;;;7.47;2.57;;;3.80;99.90;;;;;;5032175;28;20571;-62
2022/03/15 01:51:14;;;;;;;5.90;2.97;;;3.80;99.90;;;;;;5030172;28;20195;-62
2022/03/15 01:53:40;;;;;;;8.70;2.63;;;3.80;99.90;;;;;;5030072;28;20197;-61
2022/03/15 01:56:06;;;;;;;3.40;1.97;;;3.80;99.90;;;;;;5028206;28;21537;-61
2022/03/15 01:58:31;;;;;;;8.73;2.10;;;3.80;99.90;;;;;;5028090;28;20218;-61
2022/03/15 02:00:57;;;;;;;5.23;2.00;;;3.80;99.90;;;;;;5031460;28;20673;-60
2022/03/15 02:03:23;;;;;;;4.90;2.13;;;3.70;99.90;;;;;;5030733;28;20642;-62
2022/03/15 02:05:48;;;;;;;9.50;3.00;;;3.70;99.90;;;;;;5014120;28;20197;-61
2022/03/15 02:08:16;;;;;;;4.60;2.30;;;3.60;99.90;;;;;;5029427;28;20260;-61
2022/03/15 02:10:42;;;;;;;6.80;2.60;;;3.70;99.90;;;;;;5030274;28;20674;-62
2022/03/15 02:13:10;;;;;;;12.80;2.57;;;3.60;99.90;;;;;;5030976;28;20429;-62
2022/03/15 02:15:36;;;;;;;4.37;1.80;;;3.60;99.90;;;;;;5032237;28;20436;-62
2022/03/15 02:18:04;;;;;;;6.23;2.37;;;3.60;99.90;;;;;;5029923;28;20436;-62
2022/03/15 02:20:30;;;;;;;11.00;2.17;;;3.60;99.90;;;;;;5033566;28;20479;-61
2022/03/15 02:22:56;;;;;;;3.77;2.10;;;3.70;99.90;;;;;;5028050;28;20424;-62
2022/03/15 02:25:22;;;;;;;3.10;1.70;;;3.70;99.90;;;;;;5032886;28;20454;-62
2022/03/15 02:27:48;;;;;;;4.30;1.53;;;3.70;99.90;;;;;;5027155;28;20451;-62
2022/03/15 02:30:14;;;;;;;4.10;2.27;;;3.70;99.90;;;;;;5029929;28;20491;-62
2022/03/15 02:32:39;;;;;;;7.33;1.97;;;3.80;99.90;;;;;;5029242;28;20225;-62
2022/03/15 02:35:06;;;;;;;5.93;2.20;;;3.80;99.90;;;;;;5033248;28;20178;-63
2022/03/15 02:37:32;;;;;;;3.43;1.90;;;3.70;99.90;;;;;;5027918;28;20202;-61
2022/03/15 02:39:58;;;;;;;4.93;2.30;;;3.70;99.90;;;;;;5026115;28;20575;-64
2022/03/15 02:42:24;;;;;;;10.83;2.87;;;3.70;99.90;;;;;;5026278;28;20512;-64
2022/03/15 02:44:49;;;;;;;9.50;2.67;;;3.70;99.90;;;;;;5027984;28;20925;-64
2022/03/15 02:47:15;;;;;;;9.87;2.10;;;3.70;99.90;;;;;;5029972;28;20190;-64
2022/03/15 02:49:41;;;;;;;6.33;1.90;;;3.70;99.90;;;;;;5026262;28;20678;-63
2022/03/15 02:52:07;;;;;;;4.73;2.30;;;3.70;99.90;;;;;;5029559;28;20195;-64
2022/03/15 02:54:32;;;;;;;4.23;2.20;;;3.70;99.90;;;;;;5031220;28;20601;-62
2022/03/15 02:56:58;;;;;;;6.63;1.80;;;3.60;99.90;;;;;;5029201;28;20445;-64
2022/03/15 02:59:24;;;;;;;35.67;3.20;;;3.60;99.90;;;;;;5026287;28;20214;-60
2022/03/15 03:01:50;;;;;;;7.20;2.10;;;3.60;99.90;;;;;;5030259;28;20273;-61
2022/03/15 03:04:18;;;;;;;9.63;2.90;;;3.60;99.90;;;;;;5028505;28;20266;-60
2022/03/15 03:06:44;;;;;;;4.23;1.97;;;3.60;99.90;;;;;;5032074;28;20444;-60
2022/03/15 03:09:15;;;;;;;3.90;2.20;;;3.60;99.90;;;;;;5030786;28;20452;-62
2022/03/15 03:11:40;;;;;;;5.00;1.93;;;3.60;99.90;;;;;;5026723;28;20452;-64
2022/03/15 03:14:06;;;;;;;6.03;2.17;;;3.60;99.90;;;;;;5027840;28;20440;-61
2022/03/15 03:16:32;;;;;;;2.83;1.73;;;3.60;99.90;;;;;;5029868;28;20194;-62
2022/03/15 03:18:58;;;;;;;2.77;1.43;;;3.60;99.90;;;;;;5028314;28;20466;-62
2022/03/15 03:21:28;;;;;;;7.30;2.13;;;3.60;99.90;;;;;;5027900;28;20206;-61
2022/03/15 03:23:55;;;;;;;7.60;2.73;;;3.70;99.90;;;;;;5030252;28;20634;-62
2022/03/15 03:26:22;;;;;;;7.37;2.53;;;3.70;99.90;;;;;;5033488;28;20433;-61
2022/03/15 03:28:48;;;;;;;3.10;1.60;;;3.70;99.90;;;;;;5031702;28;20447;-61
2022/03/15 03:31:14;;;;;;;4.23;2.00;;;3.80;99.90;;;;;;5015623;28;20441;-62
2022/03/15 03:33:40;;;;;;;8.60;2.90;;;3.70;99.90;;;;;;5031087;28;20242;-60
2022/03/15 03:36:06;;;;;;;4.00;2.00;;;3.80;99.90;;;;;;5035750;28;20237;-61
2022/03/15 03:38:32;;;;;;;4.03;2.23;;;3.80;99.90;;;;;;5035607;28;20384;-62
2022/03/15 03:40:58;;;;;;;4.80;2.17;;;3.80;99.90;;;;;;5034186;28;20976;-62
2022/03/15 03:43:25;;;;;;;3.13;1.60;;;3.80;99.90;;;;;;5034834;28;20470;-62
2022/03/15 03:45:50;;;;;;;4.57;1.80;;;3.70;99.90;;;;;;5037194;28;20734;-61
2022/03/15 03:48:16;;;;;;;5.93;1.83;;;3.70;99.90;;;;;;5033563;28;20563;-60
2022/03/15 03:50:43;;;;;;;4.37;2.43;;;3.70;99.90;;;;;;5035829;28;20288;-63
2022/03/15 03:53:09;;;;;;;5.67;1.80;;;3.70;99.90;;;;;;5032532;28;20192;-61
2022/03/15 03:55:36;;;;;;;3.50;2.07;;;3.70;99.90;;;;;;5030314;28;20448;-61
2022/03/15 03:58:02;;;;;;;2.20;1.57;;;3.70;99.90;;;;;;5032289;28;20433;-61
2022/03/15 04:00:29;;;;;;;7.63;2.90;;;3.60;99.90;;;;;;5028239;28;20468;-61
2022/03/15 04:02:59;;;;;;;2.30;1.80;;;3.60;99.90;;;;;;5031118;28;21231;-62
2022/03/15 04:05:26;;;;;;;6.30;1.97;;;3.60;99.90;;;;;;5025774;28;20428;-62
2022/03/15 04:07:51;;;;;;;8.27;2.50;;;3.50;99.90;;;;;;5034078;28;20512;-61
2022/03/15 04:10:19;;;;;;;5.20;2.43;;;3.50;99.90;;;;;;5029524;28;20519;-63
2022/03/15 04:12:45;;;;;;;4.33;2.40;;;3.50;99.90;;;;;;5034412;28;20202;-62
2022/03/15 04:15:11;;;;;;;6.27;3.13;;;3.60;99.90;;;;;;5030539;28;20929;-63
2022/03/15 04:17:37;;;;;;;4.50;1.93;;;3.60;99.90;;;;;;5039053;28;20443;-61
2022/03/15 04:20:03;;;;;;;6.60;2.77;;;3.60;99.90;;;;;;5031650;28;20771;-62
2022/03/15 04:22:29;;;;;;;5.53;2.47;;;3.50;99.90;;;;;;5028889;28;20337;-60
2022/03/15 04:24:55;;;;;;;6.90;3.00;;;3.50;99.90;;;;;;5016145;28;20488;-61
2022/03/15 04:27:21;;;;;;;6.83;3.33;;;3.50;99.90;;;;;;5032778;28;20925;-61
2022/03/15 04:29:46;;;;;;;7.20;3.67;;;3.50;99.90;;;;;;5035983;28;20452;-62
2022/03/15 04:32:12;;;;;;;7.93;2.33;;;3.50;99.90;;;;;;5035826;28;20662;-62
2022/03/15 04:34:38;;;;;;;6.17;2.13;;;3.50;99.90;;;;;;5031400;28;20228;-61
2022/03/15 04:37:04;;;;;;;4.90;2.23;;;3.50;99.90;;;;;;5012494;28;20285;-60
2022/03/15 04:39:29;;;;;;;8.10;2.17;;;3.50;99.90;;;;;;5030835;28;20220;-61
2022/03/15 04:41:56;;;;;;;2.63;1.60;;;3.50;99.90;;;;;;5029795;28;20187;-62
2022/03/15 04:44:22;;;;;;;2.27;1.20;;;3.60;99.90;;;;;;5031361;28;20186;-62
2022/03/15 04:46:48;;;;;;;4.23;1.93;;;3.60;99.90;;;;;;5027282;28;20532;-62
2022/03/15 04:49:13;;;;;;;3.40;1.47;;;3.60;99.90;;;;;;5029843;28;20470;-62
2022/03/15 04:51:39;;;;;;;4.60;2.00;;;3.60;99.90;;;;;;5029006;28;20196;-62
2022/03/15 04:54:05;;;;;;;4.50;2.07;;;3.60;99.90;;;;;;5029506;28;20703;-61
2022/03/15 04:56:30;;;;;;;4.77;1.90;;;3.50;99.90;;;;;;5031151;28;20198;-61
2022/03/15 04:58:56;;;;;;;19.03;2.23;;;3.40;99.90;;;;;;5031241;28;20218;-59
2022/03/15 05:01:22;;;;;;;2.07;1.00;;;3.40;99.90;;;;;;5029977;28;20697;-62
2022/03/15 05:03:47;;;;;;;6.00;2.17;;;3.40;99.90;;;;;;5032137;28;20198;-60
2022/03/15 05:06:13;;;;;;;6.30;2.00;;;3.40;99.90;;;;;;5030548;28;20194;-62
2022/03/15 05:08:38;;;;;;;5.27;2.00;;;3.40;99.90;;;;;;5031099;28;20209;-61
2022/03/15 05:11:07;;;;;;;6.77;1.90;;;3.40;99.90;;;;;;5030551;28;20221;-60
2022/03/15 05:13:47;;;;;;;6.83;2.13;;;3.50;99.90;;;;;;5028622;28;20317;-62
2022/03/15 05:16:18;;;;;;;3.73;2.10;;;3.50;99.90;;;;;;5027401;28;20439;-62
2022/03/15 05:18:49;;;;;;;5.73;2.17;;;3.50;99.90;;;;;;5039718;28;20459;-63
2022/03/15 05:21:16;;;;;;;6.63;2.20;;;3.50;99.90;;;;;;5036069;28;21003;-61
2022/03/15 05:23:43;;;;;;;2.67;1.20;;;3.50;99.90;;;;;;5040297;28;20436;-61
2022/03/15 05:26:09;;;;;;;12.33;2.20;;;3.50;99.90;;;;;;5034637;28;20487;-61
2022/03/15 05:28:35;;;;;;;13.40;2.67;;;3.60;99.90;;;;;;5029238;28;20460;-63
2022/03/15 05:31:01;;;;;;;3.30;2.07;;;3.50;99.90;;;;;;5033143;28;20499;-61
2022/03/15 05:33:29;;;;;;;9.40;3.43;;;3.50;99.90;;;;;;5035051;28;20441;-62
2022/03/15 05:35:56;;;;;;;7.23;2.67;;;3.50;99.90;;;;;;5028432;28;20194;-63
2022/03/15 05:38:22;;;;;;;9.20;5.10;;;3.60;99.90;;;;;;5028337;28;20461;-63
2022/03/15 05:40:47;;;;;;;9.93;5.40;;;3.50;99.90;;;;;;5031091;28;20476;-61
2022/03/15 05:43:13;;;;;;;12.77;6.23;;;3.60;99.90;;;;;;5011681;28;20441;-62
2022/03/15 05:45:39;;;;;;;18.70;6.13;;;3.60;99.90;;;;;;5026130;28;20678;-63
2022/03/15 05:48:05;;;;;;;15.20;4.93;;;3.70;99.90;;;;;;5032451;28;21098;-63
2022/03/15 05:50:31;;;;;;;9.63;4.00;;;3.70;99.90;;;;;;5036160;28;20452;-63
2022/03/15 05:52:57;;;;;;;4.27;2.70;;;3.70;99.90;;;;;;5032226;28;20443;-64
2022/03/15 05:55:23;;;;;;;5.13;2.20;;;3.80;99.90;;;;;;5030903;28;20194;-62
2022/03/15 05:57:49;;;;;;;3.50;2.20;;;3.80;99.90;;;;;;5029838;28;20450;-61
2022/03/15 06:00:16;;;;;;;5.40;2.43;;;3.90;99.90;;;;;;5029429;28;20472;-63
2022/03/15 06:02:41;;;;;;;6.70;2.43;;;4.00;99.90;;;;;;5029973;28;20189;-63
2022/03/15 06:05:08;;;;;;;7.20;2.27;;;4.10;99.90;;;;;;5028644;28;20548;-63
2022/03/15 06:07:34;;;;;;;3.80;1.90;;;4.20;99.90;;;;;;5031468;28;20272;-63
2022/03/15 06:09:59;;;;;;;3.90;2.00;;;4.20;99.90;;;;;;5026038;28;20453;-63
2022/03/15 06:12:25;;;;;;;2.97;1.80;;;4.30;99.90;;;;;;5031735;28;20922;-63
2022/03/15 06:14:51;;;;;;;6.63;2.40;;;4.40;99.90;;;;;;5031261;28;20277;-63
2022/03/15 06:17:17;;;;;;;6.77;2.53;;;4.50;99.90;;;;;;5032111;28;21013;-61
2022/03/15 06:19:43;;;;;;;5.37;2.23;;;4.60;99.90;;;;;;5034546;28;20456;-63
2022/03/15 06:22:09;;;;;;;10.43;2.50;;;4.60;99.90;;;;;;5024126;28;20437;-62
2022/03/15 06:24:35;;;;;;;6.33;2.33;;;4.70;99.90;;;;;;5027872;28;20452;-62
2022/03/15 06:27:00;;;;;;;5.53;2.13;;;4.70;99.90;;;;;;5033498;28;20187;-64
2022/03/15 06:29:26;;;;;;;16.80;2.90;;;4.70;99.90;;;;;;5029812;28;20336;-63
2022/03/15 06:31:53;;;;;;;6.23;2.90;;;4.80;99.90;;;;;;5037605;28;20233;-64
2022/03/15 06:34:20;;;;;;;9.03;2.80;;;4.90;99.90;;;;;;5031166;28;20946;-63
2022/03/15 06:36:46;;;;;;;12.00;4.30;;;4.90;99.90;;;;;;5034718;28;20505;-63
2022/03/15 06:39:12;;;;;;;10.10;2.97;;;4.90;99.90;;;;;;5029244;28;20823;-62
2022/03/15 06:41:39;;;;;;;6.90;2.93;;;5.00;99.90;;;;;;5035534;28;20312;-61
2022/03/15 06:44:06;;;;;;;3.37;2.10;;;5.00;99.90;;;;;;5028060;28;20543;-63
2022/03/15 06:46:32;;;;;;;3.10;1.60;;;5.10;99.90;;;;;;5026893;28;20436;-64
2022/03/15 06:48:58;;;;;;;7.33;2.70;;;5.20;99.90;;;;;;5029175;28;20463;-64
2022/03/15 06:51:28;;;;;;;3.43;1.93;;;5.20;99.90;;;;;;5030188;28;20441;-63
2022/03/15 06:53:53;;;;;;;4.60;2.80;;;5.30;99.90;;;;;;5029056;28;20441;-61
2022/03/15 06:56:20;;;;;;;4.27;2.07;;;5.30;99.90;;;;;;5030751;28;20436;-62
2022/03/15 06:58:46;;;;;;;11.20;2.93;;;5.40;99.90;;;;;;5030436;28;20228;-63
2022/03/15 07:01:12;;;;;;;7.50;2.63;;;5.40;99.90;;;;;;5031102;28;20474;-62
2022/03/15 07:03:38;;;;;;;11.60;2.80;;;5.50;99.90;;;;;;5036249;28;20296;-63
2022/03/15 07:06:03;;;;;;;10.80;2.10;;;5.50;99.90;;;;;;5025325;28;20434;-61
2022/03/15 07:08:30;;;;;;;6.50;2.40;;;5.50;99.90;;;;;;5028764;28;20292;-62
2022/03/15 07:10:56;;;;;;;7.03;2.10;;;5.60;99.90;;;;;;5023532;28;20785;-64
2022/03/15 07:13:21;;;;;;;3.40;2.47;;;5.60;99.90;;;;;;5027955;28;20507;-62
2022/03/15 07:15:47;;;;;;;6.97;2.60;;;5.60;99.90;;;;;;5018089;28;20661;-64
2022/03/15 07:18:15;;;;;;;7.40;3.17;;;5.60;99.90;;;;;;5015652;28;20209;-62
2022/03/15 07:20:41;;;;;;;14.33;2.90;;;5.70;99.90;;;;;;5028038;28;20464;-61
2022/03/15 07:23:07;;;;;;;9.97;1.63;;;5.80;99.90;;;;;;5024151;28;20440;-63
2022/03/15 07:25:32;;;;;;;5.80;1.87;;;5.70;99.90;;;;;;5034860;28;20687;-64
2022/03/15 07:27:58;;;;;;;6.43;2.33;;;5.70;99.90;;;;;;5022956;28;20194;-64
2022/03/15 07:30:24;;;;;;;4.90;1.90;;;5.70;99.90;;;;;;5027569;28;20194;-62
2022/03/15 07:32:49;;;;;;;11.70;2.70;;;5.80;99.90;;;;;;5027390;28;20993;-64
2022/03/15 07:35:16;;;;;;;6.77;2.17;;;5.80;99.90;;;;;;5023236;28;20646;-64
2022/03/15 07:37:53;;;;;;;5.23;2.20;;;5.90;99.90;;;;;;5021863;28;20194;-62
2022/03/15 07:40:19;;;;;;;9.33;2.60;;;5.90;99.70;;;;;;5020633;28;20507;-62
2022/03/15 07:42:46;;;;;;;6.40;1.37;;;5.90;99.70;;;;;;5024943;28;20460;-64
2022/03/15 07:45:11;;;;;;;6.47;2.00;;;6.00;99.50;;;;;;5027462;28;20441;-64
2022/03/15 07:47:37;;;;;;;8.20;1.77;;;6.00;99.30;;;;;;5028234;28;20452;-63
2022/03/15 07:50:03;;;;;;;2.47;1.50;;;6.10;98.90;;;;;;5030329;28;20834;-67
2022/03/15 07:52:29;;;;;;;4.57;2.00;;;6.20;98.70;;;;;;5031346;28;20945;-67
2022/03/15 07:54:55;;;;;;;14.10;2.13;;;6.30;98.90;;;;;;5019163;28;20443;-65
2022/03/15 07:57:20;;;;;;;4.07;1.60;;;6.30;98.90;;;;;;5030434;28;20189;-66
2022/03/15 07:59:46;;;;;;;19.73;2.00;;;6.30;98.60;;;;;;5016457;28;20234;-68
2022/03/15 08:02:14;;;;;;;4.33;2.17;;;6.40;98.80;;;;;;5037089;28;20201;-67
2022/03/15 08:04:40;;;;;;;2.87;1.50;;;6.50;98.20;;;;;;5036405;28;20265;-66
2022/03/15 08:07:06;;;;;;;4.27;1.63;;;6.50;98.00;;;;;;5037676;28;20424;-66
2022/03/15 08:09:31;;;;;;;7.40;2.30;;;6.50;98.10;;;;;;5035878;28;20210;-65
2022/03/15 08:12:03;;;;;;;3.40;1.80;;;6.60;98.00;;;;;;5028640;28;20278;-66
2022/03/15 08:14:28;;;;;;;2.40;1.40;;;6.50;98.60;;;;;;5030942;28;20179;-66
2022/03/15 08:16:54;;;;;;;13.80;1.70;;;6.60;98.90;;;;;;5035250;28;20492;-66
2022/03/15 08:19:20;;;;;;;6.03;1.60;;;6.70;99.10;;;;;;5036950;28;20257;-67
2022/03/15 08:21:46;;;;;;;3.83;1.93;;;6.70;99.30;;;;;;5039556;28;20689;-67
2022/03/15 08:24:12;;;;;;;3.10;1.27;;;6.90;99.20;;;;;;5041858;28;20458;-67
2022/03/15 08:26:38;;;;;;;3.73;1.40;;;6.90;99.30;;;;;;5038804;28;20181;-66
2022/03/15 08:29:07;;;;;;;5.87;1.87;;;6.80;99.20;;;;;;5031366;28;20700;-67
2022/03/15 08:31:33;;;;;;;4.00;2.07;;;6.90;99.60;;;;;;5037900;28;20527;-64
2022/03/15 08:33:59;;;;;;;3.03;1.57;;;6.90;99.80;;;;;;5037336;28;20523;-66
2022/03/15 08:36:27;;;;;;;4.10;2.00;;;6.80;99.90;;;;;;5032252;28;20198;-66
2022/03/15 08:38:53;;;;;;;5.67;1.67;;;6.80;99.90;;;;;;5039770;28;20344;-65
2022/03/15 08:41:19;;;;;;;4.87;1.70;;;6.80;99.90;;;;;;5043132;28;20554;-65
2022/03/15 08:43:47;;;;;;;3.57;1.67;;;6.80;99.90;;;;;;5038919;28;20229;-67
2022/03/15 08:46:13;;;;;;;4.20;2.00;;;6.70;99.90;;;;;;5035429;28;20190;-66
2022/03/15 08:48:39;;;;;;;4.23;1.87;;;6.70;99.90;;;;;;5019982;28;20462;-67
2022/03/15 08:51:04;;;;;;;3.67;1.90;;;6.60;99.90;;;;;;5029084;28;20191;-67
2022/03/15 08:53:32;;;;;;;9.47;2.53;;;6.60;99.90;;;;;;5029370;28;20190;-66
2022/03/15 08:55:58;;;;;;;4.10;2.10;;;6.60;99.90;;;;;;5025896;28;20225;-66
2022/03/15 08:58:27;;;;;;;7.90;2.10;;;6.60;99.90;;;;;;5027511;28;20523;-65
2022/03/15 09:00:52;;;;;;;5.83;2.40;;;6.60;99.90;;;;;;5029305;28;20472;-67
2022/03/15 09:03:24;;;;;;;14.73;3.43;;;6.60;99.90;;;;;;5013787;28;20433;-66
2022/03/15 09:05:51;;;;;;;5.80;2.10;;;6.60;99.90;;;;;;5025743;28;20242;-66
2022/03/15 09:08:16;;;;;;;5.40;3.33;;;6.60;99.90;;;;;;5026339;28;20516;-67
2022/03/15 09:10:44;;;;;;;7.20;2.97;;;6.60;99.90;;;;;;5040049;28;20425;-66
2022/03/15 09:13:13;;;;;;;5.53;3.10;;;6.60;99.90;;;;;;5038152;28;20196;-67
2022/03/15 09:15:42;;;;;;;5.63;2.63;;;6.60;99.90;;;;;;5029496;28;20835;-67
2022/03/15 09:18:10;;;;;;;7.50;2.97;;;6.60;99.90;;;;;;5038076;28;20428;-64
2022/03/15 09:20:36;;;;;;;10.23;2.80;;;6.60;99.90;;;;;;5035698;28;20460;-64
2022/03/15 09:23:02;;;;;;;7.33;3.40;;;6.70;99.90;;;;;;5038422;28;20424;-64
2022/03/15 09:25:30;;;;;;;5.60;2.40;;;6.80;99.90;;;;;;5034249;28;20456;-66
2022/03/15 09:27:55;;;;;;;3.23;1.67;;;6.90;99.90;;;;;;5033664;28;20417;-65
2022/03/15 09:30:22;;;;;;;3.70;2.13;;;7.00;99.90;;;;;;5029904;28;20438;-66
2022/03/15 09:32:48;;;;;;;5.47;1.87;;;7.10;99.90;;;;;;5034845;28;20193;-68
2022/03/15 09:35:17;;;;;;;3.20;1.93;;;7.20;99.90;;;;;;5032600;28;21047;-66
2022/03/15 09:37:47;;;;;;;4.27;2.00;;;7.40;99.90;;;;;;5027858;28;20503;-66
2022/03/15 09:40:13;;;;;;;5.57;2.27;;;7.40;99.90;;;;;;5023146;28;20991;-65
2022/03/15 09:42:41;;;;;;;3.27;1.90;;;7.40;99.90;;;;;;5028510;28;20417;-66
2022/03/15 09:45:07;;;;;;;3.10;1.10;;;7.40;99.90;;;;;;5027628;28;20540;-66
2022/03/15 09:47:35;;;;;;;4.97;1.70;;;7.40;99.90;;;;;;5025646;28;20433;-65
2022/03/15 09:50:06;;;;;;;3.40;1.20;;;7.40;99.90;;;;;;5023692;28;20527;-64
2022/03/15 09:52:32;;;;;;;4.07;2.13;;;7.40;99.90;;;;;;5023984;28;20428;-64
2022/03/15 09:54:59;;;;;;;5.20;2.07;;;7.40;99.90;;;;;;5025562;28;20471;-64
2022/03/15 09:57:25;;;;;;;2.87;1.63;;;7.40;99.90;;;;;;5024650;28;20547;-65
2022/03/15 09:59:51;;;;;;;4.37;1.90;;;7.40;99.90;;;;;;5026065;28;20484;-65
2022/03/15 10:02:17;;;;;;;2.70;1.53;;;7.40;99.90;;;;;;5028104;28;20436;-65
2022/03/15 10:04:43;;;;;;;4.07;1.80;;;7.40;99.90;;;;;;5024147;28;20417;-66
2022/03/15 10:07:09;;;;;;;2.60;1.23;;;7.40;99.90;;;;;;5026275;28;20739;-65
2022/03/15 10:09:35;;;;;;;2.43;1.50;;;7.40;99.90;;;;;;5026222;28;20728;-64
2022/03/15 10:12:01;;;;;;;3.73;1.73;;;7.40;99.90;;;;;;5028708;28;20265;-63
2022/03/15 10:14:27;;;;;;;6.47;2.43;;;7.40;99.90;;;;;;5024896;28;20441;-65
2022/03/15 10:17:03;;;;;;;3.27;1.83;;;7.50;99.90;;;;;;5023876;28;20429;-65
2022/03/15 10:19:29;;;;;;;4.67;1.70;;;7.50;99.90;;;;;;5024260;28;20234;-65
2022/03/15 10:21:56;;;;;;;2.63;1.33;;;7.60;99.90;;;;;;5027913;28;20498;-65
2022/03/15 10:24:28;;;;;;;3.57;1.87;;;7.60;99.90;;;;;;5028424;28;20945;-66
2022/03/15 10:26:56;;;;;;;4.13;2.13;;;7.60;99.90;;;;;;5027020;28;20436;-65
2022/03/15 10:29:25;;;;;;;3.53;2.07;;;7.60;99.90;;;;;;5020228;28;20467;-64
2022/03/15 10:31:53;;;;;;;3.27;1.93;;;7.60;99.90;;;;;;5019860;28;20448;-66
2022/03/15 10:34:20;;;;;;;7.20;1.80;;;7.60;99.90;;;;;;5032461;28;20453;-65
2022/03/15 10:36:49;;;;;;;2.80;1.90;;;7.60;99.90;;;;;;5031347;28;20566;-66
2022/03/15 10:39:17;;;;;;;2.73;1.60;;;7.70;99.90;;;;;;5006225;28;20520;-67
2022/03/15 10:41:57;;;;;;;4.57;2.37;;;7.70;99.90;;;;;;5025494;28;20460;-63
2022/03/15 10:44:27;;;;;;;2.40;1.40;;;7.80;99.90;;;;;;5024789;28;20430;-66
2022/03/15 10:47:04;;;;;;;3.83;2.73;;;7.80;99.90;;;;;;5037609;28;20472;-65
2022/03/15 10:49:43;;;;;;;3.20;2.00;;;7.80;99.90;;;;;;4999016;28;20465;-64
2022/03/15 10:52:09;;;;;;;7.37;2.40;;;7.80;99.90;;;;;;5019563;28;20460;-65
2022/03/15 10:54:35;;;;;;;3.37;2.20;;;7.80;99.90;;;;;;5024401;28;20438;-65
2022/03/15 10:57:01;;;;;;;11.13;1.97;;;7.80;99.90;;;;;;5032031;28;20484;-65
2022/03/15 10:59:27;;;;;;;2.87;1.77;;;7.80;99.90;;;;;;5021655;28;20534;-65
2022/03/15 11:01:55;;;;;;;5.90;2.10;;;7.80;99.90;;;;;;5019448;28;20296;-64
2022/03/15 11:04:21;;;;;;;8.80;2.10;;;7.80;99.90;;;;;;5033152;28;20218;-65
2022/03/15 11:06:49;;;;;;;5.80;2.07;;;7.80;99.90;;;;;;5020124;28;21356;-65
2022/03/15 11:09:27;;;;;;;4.70;2.33;;;7.80;99.90;;;;;;5024108;28;20210;-64
2022/03/15 11:12:00;;;;;;;4.50;1.87;;;7.80;99.90;;;;;;5024091;28;20433;-64
2022/03/15 11:14:44;;;;;;;4.53;1.80;;;7.80;99.90;;;;;;5029742;28;20428;-64
2022/03/15 11:17:28;;;;;;;4.10;1.90;;;7.80;99.90;;;;;;5027088;28;20428;-65
2022/03/15 11:19:59;;;;;;;4.17;2.03;;;7.80;99.90;;;;;;5027138;28;20449;-65
2022/03/15 11:22:27;;;;;;;4.73;2.43;;;7.80;99.90;;;;;;5029248;28;20425;-64
2022/03/15 11:25:04;;;;;;;5.43;2.67;;;7.80;99.90;;;;;;5024346;28;20573;-65
2022/03/15 11:27:41;;;;;;;3.73;2.10;;;7.80;99.90;;;;;;5021364;28;20487;-65
2022/03/15 11:30:15;;;;;;;11.60;2.33;;;7.80;99.90;;;;;;5026133;28;20444;-66
2022/03/15 11:32:42;;;;;;;9.40;3.50;;;7.80;99.90;;;;;;5017815;28;20441;-66
2022/03/15 11:35:10;;;;;;;7.60;2.80;;;7.80;99.90;;;;;;5025594;28;20528;-65
2022/03/15 11:37:37;;;;;;;5.10;2.57;;;7.80;99.90;;;;;;5031676;28;20416;-64
2022/03/15 11:40:05;;;;;;;6.17;3.30;;;7.90;99.90;;;;;;5015139;28;20472;-64
2022/03/15 11:42:32;;;;;;;6.80;3.30;;;7.90;99.90;;;;;;5028426;28;20829;-66
2022/03/15 11:45:09;;;;;;;6.73;3.53;;;8.00;99.90;;;;;;5029800;28;20436;-65
2022/03/15 11:48:02;;;;;;;6.57;2.83;;;8.00;99.90;;;;;;5018104;28;20447;-65
2022/03/15 11:50:35;;;;;;;12.03;3.57;;;8.00;99.90;;;;;;5016772;28;20536;-65
2022/03/15 11:53:26;;;;;;;6.60;3.20;;;8.00;99.90;;;;;;5020165;28;20433;-65
2022/03/15 11:56:10;;;;;;;7.20;2.70;;;8.10;99.90;;;;;;5032023;28;20476;-64
2022/03/15 11:58:36;;;;;;;5.37;3.60;;;8.10;99.90;;;;;;5007305;28;20635;-64
2022/03/15 12:01:14;;;;;;;10.87;3.37;;;8.20;99.90;;;;;;5028342;28;21122;-65
2022/03/15 12:03:49;;;;;;;4.37;2.00;;;8.20;99.90;;;;;;5027259;28;20264;-65
2022/03/15 12:06:31;;;;;;;9.07;2.73;;;8.20;99.90;;;;;;5023985;28;20427;-64
2022/03/15 12:09:03;;;;;;;5.43;1.67;;;8.10;99.90;;;;;;5015817;28;20567;-65
2022/03/15 12:11:39;;;;;;;4.53;1.77;;;8.10;99.90;;;;;;5025677;28;20567;-64
2022/03/15 12:14:07;;;;;;;3.00;1.50;;;8.10;99.90;;;;;;5005990;28;20444;-64
2022/03/15 12:16:41;;;;;;;3.63;1.73;;;8.10;99.90;;;;;;5022975;28;20987;-64
2022/03/15 12:19:35;;;;;;;3.93;1.47;;;8.10;99.90;;;;;;5020928;28;20619;-65
2022/03/15 12:22:08;;;;;;;7.83;1.73;;;8.10;99.90;;;;;;5027335;28;20476;-64
2022/03/15 12:24:39;;;;;;;3.27;1.50;;;8.10;99.90;;;;;;5023638;28;20520;-65
2022/03/15 12:27:07;;;;;;;4.53;1.33;;;8.20;99.90;;;;;;5027936;28;20466;-64
2022/03/15 12:29:36;;;;;;;3.20;1.70;;;8.10;99.90;;;;;;5025922;28;20536;-65
2022/03/15 12:32:14;;;;;;;3.13;1.50;;;8.10;99.90;;;;;;5019525;28;20491;-63
2022/03/15 12:34:44;;;;;;;2.83;1.57;;;8.10;99.90;;;;;;5026412;28;20446;-63
2022/03/15 12:37:11;;;;;;;2.60;1.70;;;8.00;99.90;;;;;;5005175;28;20429;-65
2022/03/15 12:39:37;;;;;;;4.50;2.00;;;8.10;99.90;;;;;;5028650;28;20456;-65
2022/03/15 12:42:08;;;;;;;2.70;1.43;;;8.00;99.90;;;;;;5030329;28;20459;-64
2022/03/15 12:44:50;;;;;;;4.80;2.40;;;8.00;99.90;;;;;;5031837;28;20453;-64
2022/03/15 12:47:21;;;;;;;2.70;1.53;;;8.00;99.90;;;;;;5025491;28;20425;-64
2022/03/15 12:50:12;;;;;;;4.97;2.30;;;8.10;99.90;;;;;;5029836;28;20445;-63
2022/03/15 12:52:39;;;;;;;3.03;1.90;;;8.10;99.90;;;;;;5031685;28;20423;-63
2022/03/15 12:55:06;;;;;;;5.07;2.00;;;8.10;99.90;;;;;;5036869;28;20516;-64
2022/03/15 12:57:32;;;;;;;13.80;2.73;;;8.00;99.90;;;;;;5040315;28;20420;-65